sensor_id;sensor_type;location;lat;lon;timestamp;pressure;altitude;pressure_sealevel;temperature;humidity
14885;BME280;7534;50.762;7.000;2023-02-23T00:02:58;88058.06;;;-143.16;88.32
14885;BME280;7534;50.762;7.000;2023-02-23T00:05:35;88296.28;;;-143.16;88.67
14885;BME280;7534;50.762;7.000;2023-02-23T00:08:02;88193.31;;;-143.16;88.51
14885;BME280;7534;50.762;7.000;2023-02-23T00:10:31;88338.66;;;-143.16;88.71
14885;BME280;7534;50.762;7.000;2023-02-23T00:12:59;88314.44;;;-143.16;88.90
14885;BME280;7534;50.762;7.000;2023-02-23T00:15:28;88225.63;;;-143.16;89.17
14885;BME280;7534;50.762;7.000;2023-02-23T00:17:56;88219.56;;;-143.16;89.26
14885;BME280;7534;50.762;7.000;2023-02-23T00:20:24;88201.41;;;-143.16;89.23
14885;BME280;7534;50.762;7.000;2023-02-23T00:22:55;88173.13;;;-143.16;89.12
14885;BME280;7534;50.762;7.000;2023-02-23T00:25:23;88318.47;;;-143.16;89.30
14885;BME280;7534;50.762;7.000;2023-02-23T00:27:50;88187.25;;;-143.16;89.16
14885;BME280;7534;50.762;7.000;2023-02-23T00:30:18;88284.16;;;-143.16;88.71
14885;BME280;7534;50.762;7.000;2023-02-23T00:32:44;88286.19;;;-143.16;88.75
14885;BME280;7534;50.762;7.000;2023-02-23T00:35:11;88193.31;;;-143.16;88.35
14885;BME280;7534;50.762;7.000;2023-02-23T00:37:48;88255.91;;;-143.16;87.95
14885;BME280;7534;50.762;7.000;2023-02-23T00:40:18;88282.16;;;-143.16;88.10
14885;BME280;7534;50.762;7.000;2023-02-23T00:42:48;88211.50;;;-143.16;88.02
14885;BME280;7534;50.762;7.000;2023-02-23T00:45:16;88173.13;;;-143.16;88.22
14885;BME280;7534;50.762;7.000;2023-02-23T00:47:43;88108.53;;;-143.16;88.85
14885;BME280;7534;50.762;7.000;2023-02-23T00:50:12;88134.78;;;-143.16;88.86
14885;BME280;7534;50.762;7.000;2023-02-23T00:52:43;88128.72;;;-143.16;88.81
14885;BME280;7534;50.762;7.000;2023-02-23T00:55:11;88282.16;;;-143.16;88.32
14885;BME280;7534;50.762;7.000;2023-02-23T00:57:40;88169.09;;;-143.16;89.06
14885;BME280;7534;50.762;7.000;2023-02-23T01:00:10;88253.88;;;-143.16;88.88
14885;BME280;7534;50.762;7.000;2023-02-23T01:02:47;88308.38;;;-143.16;88.83
14885;BME280;7534;50.762;7.000;2023-02-23T01:05:13;88344.72;;;-143.16;88.82
14885;BME280;7534;50.762;7.000;2023-02-23T01:07:39;88314.44;;;-143.16;89.14
14885;BME280;7534;50.762;7.000;2023-02-23T01:10:06;88167.06;;;-143.16;89.18
14885;BME280;7534;50.762;7.000;2023-02-23T01:12:53;88364.91;;;-143.16;88.88
14885;BME280;7534;50.762;7.000;2023-02-23T01:15:19;88157.00;;;-143.16;88.48
14885;BME280;7534;50.762;7.000;2023-02-23T01:17:46;88241.78;;;-143.16;88.27
14885;BME280;7534;50.762;7.000;2023-02-23T01:20:14;88268.00;;;-143.16;88.27
14885;BME280;7534;50.762;7.000;2023-02-23T01:22:45;88294.25;;;-143.16;88.08
14885;BME280;7534;50.762;7.000;2023-02-23T01:25:11;88298.28;;;-143.16;87.84
14885;BME280;7534;50.762;7.000;2023-02-23T01:27:40;88203.41;;;-143.16;87.80
14885;BME280;7534;50.762;7.000;2023-02-23T01:30:11;88217.53;;;-143.16;87.84
14885;BME280;7534;50.762;7.000;2023-02-23T01:32:38;88334.63;;;-143.16;87.60
14885;BME280;7534;50.762;7.000;2023-02-23T01:35:09;88183.22;;;-143.16;87.78
14885;BME280;7534;50.762;7.000;2023-02-23T01:37:39;88217.53;;;-143.16;87.74
14885;BME280;7534;50.762;7.000;2023-02-23T01:40:18;88344.72;;;-143.16;87.70
14885;BME280;7534;50.762;7.000;2023-02-23T01:45:44;88379.03;;;-143.16;88.32
14885;BME280;7534;50.762;7.000;2023-02-23T01:48:30;88308.38;;;-143.16;88.47
14885;BME280;7534;50.762;7.000;2023-02-23T01:51:09;88181.22;;;-143.16;88.32
14885;BME280;7534;50.762;7.000;2023-02-23T01:54:09;88167.06;;;-143.16;88.11
14885;BME280;7534;50.762;7.000;2023-02-23T01:56:44;88455.75;;;-143.16;87.66
14885;BME280;7534;50.762;7.000;2023-02-23T01:59:15;88136.78;;;-143.16;87.92
14885;BME280;7534;50.762;7.000;2023-02-23T02:01:42;88251.88;;;-143.16;88.29
14885;BME280;7534;50.762;7.000;2023-02-23T02:04:10;88130.75;;;-143.16;88.64
14885;BME280;7534;50.762;7.000;2023-02-23T02:06:44;88308.38;;;-143.16;88.61
14885;BME280;7534;50.762;7.000;2023-02-23T02:09:15;88290.22;;;-143.16;88.44
14885;BME280;7534;50.762;7.000;2023-02-23T02:11:42;88290.22;;;-143.16;88.12
14885;BME280;7534;50.762;7.000;2023-02-23T02:14:29;88270.03;;;-143.16;87.51
14885;BME280;7534;50.762;7.000;2023-02-23T02:17:36;88328.56;;;-143.16;87.57
14885;BME280;7534;50.762;7.000;2023-02-23T02:20:53;88302.34;;;-143.16;87.40
14885;BME280;7534;50.762;7.000;2023-02-23T02:35:16;88302.34;;;-143.16;87.85
14885;BME280;7534;50.762;7.000;2023-02-23T02:40:31;88255.91;;;-143.16;88.20
14885;BME280;7534;50.762;7.000;2023-02-23T02:43:22;88251.88;;;-143.16;87.94
14885;BME280;7534;50.762;7.000;2023-02-23T02:46:03;88183.22;;;-143.16;87.69
14885;BME280;7534;50.762;7.000;2023-02-23T02:48:45;88300.31;;;-143.16;87.43
14885;BME280;7534;50.762;7.000;2023-02-23T02:54:21;88292.22;;;-143.16;87.30
14885;BME280;7534;50.762;7.000;2023-02-23T02:56:51;88284.16;;;-143.16;87.14
14885;BME280;7534;50.762;7.000;2023-02-23T02:59:22;88300.31;;;-143.16;87.14
14885;BME280;7534;50.762;7.000;2023-02-23T03:02:21;88310.41;;;-143.16;86.85
14885;BME280;7534;50.762;7.000;2023-02-23T03:05:23;88292.22;;;-143.16;86.78
14885;BME280;7534;50.762;7.000;2023-02-23T03:08:30;88316.47;;;-143.16;86.62
14885;BME280;7534;50.762;7.000;2023-02-23T03:11:17;88282.16;;;-143.16;86.46
14885;BME280;7534;50.762;7.000;2023-02-23T03:14:44;88316.47;;;-143.16;86.61
14885;BME280;7534;50.762;7.000;2023-02-23T03:17:45;88276.09;;;-143.16;86.70
14885;BME280;7534;50.762;7.000;2023-02-23T03:23:45;88272.06;;;-143.16;86.20
14885;BME280;7534;50.762;7.000;2023-02-23T03:26:58;88300.31;;;-143.16;86.09
14885;BME280;7534;50.762;7.000;2023-02-23T03:30:32;88249.84;;;-143.16;86.24
14885;BME280;7534;50.762;7.000;2023-02-23T03:33:41;88249.84;;;-143.16;85.86
14885;BME280;7534;50.762;7.000;2023-02-23T03:36:34;88253.88;;;-143.16;85.85
14885;BME280;7534;50.762;7.000;2023-02-23T03:39:39;88247.81;;;-143.16;85.79
14885;BME280;7534;50.762;7.000;2023-02-23T03:42:31;88235.72;;;-143.16;85.77
14885;BME280;7534;50.762;7.000;2023-02-23T03:45:22;88282.16;;;-143.16;86.82
14885;BME280;7534;50.762;7.000;2023-02-23T03:48:11;88344.72;;;-143.16;87.68
14885;BME280;7534;50.762;7.000;2023-02-23T03:51:04;88364.91;;;-143.16;88.45
14885;BME280;7534;50.762;7.000;2023-02-23T03:54:00;88324.53;;;-143.16;88.42
14885;BME280;7534;50.762;7.000;2023-02-23T03:56:52;88302.34;;;-143.16;88.74
14885;BME280;7534;50.762;7.000;2023-02-23T03:59:45;88366.94;;;-143.16;88.83
14885;BME280;7534;50.762;7.000;2023-02-23T04:02:34;88302.34;;;-143.16;88.84
14885;BME280;7534;50.762;7.000;2023-02-23T04:05:21;88332.63;;;-143.16;88.41
14885;BME280;7534;50.762;7.000;2023-02-23T04:08:11;88308.38;;;-143.16;88.54
14885;BME280;7534;50.762;7.000;2023-02-23T04:11:32;88336.66;;;-143.16;88.77
14885;BME280;7534;50.762;7.000;2023-02-23T04:14:42;88332.63;;;-143.16;88.33
14885;BME280;7534;50.762;7.000;2023-02-23T04:17:11;88488.06;;;-143.16;88.13
14885;BME280;7534;50.762;7.000;2023-02-23T04:19:51;88354.81;;;-143.16;87.93
14885;BME280;7534;50.762;7.000;2023-02-23T04:22:17;88302.34;;;-143.16;87.78
14885;BME280;7534;50.762;7.000;2023-02-23T04:24:43;88274.06;;;-143.16;87.86
14885;BME280;7534;50.762;7.000;2023-02-23T04:27:11;88286.19;;;-143.16;87.77
14885;BME280;7534;50.762;7.000;2023-02-23T04:29:37;88306.38;;;-143.16;87.86
14885;BME280;7534;50.762;7.000;2023-02-23T04:32:03;88344.72;;;-143.16;88.05
14885;BME280;7534;50.762;7.000;2023-02-23T04:34:29;88387.13;;;-143.16;88.36
14885;BME280;7534;50.762;7.000;2023-02-23T04:36:55;88261.97;;;-143.16;88.13
14885;BME280;7534;50.762;7.000;2023-02-23T04:39:20;88348.75;;;-143.16;88.25
14885;BME280;7534;50.762;7.000;2023-02-23T04:41:46;88251.88;;;-143.16;88.22
14885;BME280;7534;50.762;7.000;2023-02-23T04:44:17;88263.97;;;-143.16;88.21
14885;BME280;7534;50.762;7.000;2023-02-23T04:46:43;88249.84;;;-143.16;88.31
14885;BME280;7534;50.762;7.000;2023-02-23T04:49:09;88393.19;;;-143.16;88.19
14885;BME280;7534;50.762;7.000;2023-02-23T04:51:34;88445.66;;;-143.16;88.12
14885;BME280;7534;50.762;7.000;2023-02-23T04:54:02;88300.31;;;-143.16;88.21
14885;BME280;7534;50.762;7.000;2023-02-23T04:56:28;88362.91;;;-143.16;88.07
14885;BME280;7534;50.762;7.000;2023-02-23T04:58:54;88237.72;;;-143.16;88.19
14885;BME280;7534;50.762;7.000;2023-02-23T05:01:20;88556.69;;;-143.16;88.29
14885;BME280;7534;50.762;7.000;2023-02-23T05:03:48;88373.00;;;-143.16;88.17
14885;BME280;7534;50.762;7.000;2023-02-23T05:06:15;88373.00;;;-143.16;88.53
14885;BME280;7534;50.762;7.000;2023-02-23T05:08:41;88290.22;;;-143.16;88.50
14885;BME280;7534;50.762;7.000;2023-02-23T05:11:07;88306.38;;;-143.16;88.60
14885;BME280;7534;50.762;7.000;2023-02-23T05:13:33;88247.81;;;-143.16;88.59
14885;BME280;7534;50.762;7.000;2023-02-23T05:15:59;88290.22;;;-143.16;88.55
14885;BME280;7534;50.762;7.000;2023-02-23T05:18:26;88370.97;;;-143.16;88.82
14885;BME280;7534;50.762;7.000;2023-02-23T05:20:52;88314.44;;;-143.16;88.94
14885;BME280;7534;50.762;7.000;2023-02-23T05:23:25;88306.38;;;-143.16;89.20
14885;BME280;7534;50.762;7.000;2023-02-23T05:25:51;88346.75;;;-143.16;89.08
14885;BME280;7534;50.762;7.000;2023-02-23T05:28:16;88318.47;;;-143.16;89.08
14885;BME280;7534;50.762;7.000;2023-02-23T05:30:42;88310.41;;;-143.16;89.01
14885;BME280;7534;50.762;7.000;2023-02-23T05:33:07;88308.38;;;-143.16;88.80
14885;BME280;7534;50.762;7.000;2023-02-23T05:35:33;88334.63;;;-143.16;88.70
14885;BME280;7534;50.762;7.000;2023-02-23T05:38:00;88488.06;;;-143.16;88.78
14885;BME280;7534;50.762;7.000;2023-02-23T05:40:25;88373.00;;;-143.16;88.80
14885;BME280;7534;50.762;7.000;2023-02-23T05:42:51;88290.22;;;-143.16;88.88
14885;BME280;7534;50.762;7.000;2023-02-23T05:45:22;88276.09;;;-143.16;89.08
14885;BME280;7534;50.762;7.000;2023-02-23T05:47:53;88324.53;;;-143.16;88.71
14885;BME280;7534;50.762;7.000;2023-02-23T05:50:19;88280.13;;;-143.16;88.62
14885;BME280;7534;50.762;7.000;2023-02-23T05:52:49;88324.53;;;-143.16;88.70
14885;BME280;7534;50.762;7.000;2023-02-23T05:55:15;88340.69;;;-143.16;88.64
14885;BME280;7534;50.762;7.000;2023-02-23T05:57:41;88231.69;;;-143.16;88.51
14885;BME280;7534;50.762;7.000;2023-02-23T06:00:11;88237.72;;;-143.16;88.58
14885;BME280;7534;50.762;7.000;2023-02-23T06:02:40;88516.31;;;-143.16;88.76
14885;BME280;7534;50.762;7.000;2023-02-23T06:05:09;88350.78;;;-143.16;88.74
14885;BME280;7534;50.762;7.000;2023-02-23T06:07:35;88292.22;;;-143.16;89.10
14885;BME280;7534;50.762;7.000;2023-02-23T06:10:02;88294.25;;;-143.16;89.03
14885;BME280;7534;50.762;7.000;2023-02-23T06:12:30;88395.19;;;-143.16;89.05
14885;BME280;7534;50.762;7.000;2023-02-23T06:14:56;88294.25;;;-143.16;89.64
14885;BME280;7534;50.762;7.000;2023-02-23T06:17:23;88455.75;;;-143.16;89.30
14885;BME280;7534;50.762;7.000;2023-02-23T06:19:49;88407.31;;;-143.16;89.35
14885;BME280;7534;50.762;7.000;2023-02-23T06:22:16;88316.47;;;-143.16;89.35
14885;BME280;7534;50.762;7.000;2023-02-23T06:24:43;88379.03;;;-143.16;89.59
14885;BME280;7534;50.762;7.000;2023-02-23T06:27:09;88239.75;;;-143.16;89.38
14885;BME280;7534;50.762;7.000;2023-02-23T06:29:35;88308.38;;;-143.16;89.27
14885;BME280;7534;50.762;7.000;2023-02-23T06:32:03;88229.66;;;-143.16;89.05
14885;BME280;7534;50.762;7.000;2023-02-23T06:34:29;88387.13;;;-143.16;88.91
14885;BME280;7534;50.762;7.000;2023-02-23T06:36:55;88292.22;;;-143.16;88.71
14885;BME280;7534;50.762;7.000;2023-02-23T06:39:21;88336.66;;;-143.16;88.69
14885;BME280;7534;50.762;7.000;2023-02-23T06:41:46;88312.44;;;-143.16;88.41
14885;BME280;7534;50.762;7.000;2023-02-23T06:44:12;88429.50;;;-143.16;88.41
14885;BME280;7534;50.762;7.000;2023-02-23T06:46:38;88362.91;;;-143.16;88.33
14885;BME280;7534;50.762;7.000;2023-02-23T06:49:03;88471.91;;;-143.16;88.21
14885;BME280;7534;50.762;7.000;2023-02-23T06:51:30;88294.25;;;-143.16;87.97
14885;BME280;7534;50.762;7.000;2023-02-23T06:53:55;88221.59;;;-143.16;88.09
14885;BME280;7534;50.762;7.000;2023-02-23T06:56:21;88314.44;;;-143.16;88.29
14885;BME280;7534;50.762;7.000;2023-02-23T06:58:47;88219.56;;;-143.16;88.10
14885;BME280;7534;50.762;7.000;2023-02-23T07:01:13;88391.16;;;-143.16;88.27
14885;BME280;7534;50.762;7.000;2023-02-23T07:03:40;88401.25;;;-143.16;88.43
14885;BME280;7534;50.762;7.000;2023-02-23T07:06:06;88310.41;;;-143.16;88.21
14885;BME280;7534;50.762;7.000;2023-02-23T07:08:33;88350.78;;;-143.16;88.20
14885;BME280;7534;50.762;7.000;2023-02-23T07:11:12;88393.19;;;-143.16;88.32
14885;BME280;7534;50.762;7.000;2023-02-23T07:13:38;88344.72;;;-143.16;88.14
14885;BME280;7534;50.762;7.000;2023-02-23T07:16:10;88346.75;;;-143.16;87.92
14885;BME280;7534;50.762;7.000;2023-02-23T07:18:38;88358.84;;;-143.16;88.04
14885;BME280;7534;50.762;7.000;2023-02-23T07:21:04;88278.09;;;-143.16;87.94
14885;BME280;7534;50.762;7.000;2023-02-23T07:23:30;88342.72;;;-143.16;88.01
14885;BME280;7534;50.762;7.000;2023-02-23T07:25:56;88334.63;;;-143.16;88.10
14885;BME280;7534;50.762;7.000;2023-02-23T07:28:23;88302.34;;;-143.16;87.80
14885;BME280;7534;50.762;7.000;2023-02-23T07:30:55;88395.19;;;-143.16;87.78
14885;BME280;7534;50.762;7.000;2023-02-23T07:33:21;88352.81;;;-143.16;87.83
14885;BME280;7534;50.762;7.000;2023-02-23T07:35:49;88330.59;;;-143.16;88.23
14885;BME280;7534;50.762;7.000;2023-02-23T07:38:15;88322.53;;;-143.16;88.07
14885;BME280;7534;50.762;7.000;2023-02-23T07:40:52;88235.72;;;-143.16;87.29
14885;BME280;7534;50.762;7.000;2023-02-23T07:43:18;88257.91;;;-143.16;86.91
14885;BME280;7534;50.762;7.000;2023-02-23T07:45:48;88263.97;;;-143.16;86.57
14885;BME280;7534;50.762;7.000;2023-02-23T07:48:14;88318.47;;;-143.16;86.26
14885;BME280;7534;50.762;7.000;2023-02-23T07:50:41;88223.59;;;-143.16;85.90
14885;BME280;7534;50.762;7.000;2023-02-23T07:53:07;88282.16;;;-143.16;86.08
14885;BME280;7534;50.762;7.000;2023-02-23T07:55:34;88209.47;;;-143.16;85.74
14885;BME280;7534;50.762;7.000;2023-02-23T07:57:59;88209.47;;;-143.16;85.63
14885;BME280;7534;50.762;7.000;2023-02-23T08:00:27;88207.44;;;-143.16;85.46
14885;BME280;7534;50.762;7.000;2023-02-23T08:02:58;88298.28;;;-143.16;85.49
14885;BME280;7534;50.762;7.000;2023-02-23T08:05:27;88512.28;;;-143.16;85.40
14885;BME280;7534;50.762;7.000;2023-02-23T08:07:54;88338.66;;;-143.16;85.31
14885;BME280;7534;50.762;7.000;2023-02-23T08:10:21;88302.34;;;-143.16;85.04
14885;BME280;7534;50.762;7.000;2023-02-23T08:12:47;88233.69;;;-143.16;84.91
14885;BME280;7534;50.762;7.000;2023-02-23T08:15:12;88449.69;;;-143.16;84.84
14885;BME280;7534;50.762;7.000;2023-02-23T08:17:39;88257.91;;;-143.16;84.88
14885;BME280;7534;50.762;7.000;2023-02-23T08:20:06;88219.56;;;-143.16;85.04
14885;BME280;7534;50.762;7.000;2023-02-23T08:22:33;88219.56;;;-143.16;84.92
14885;BME280;7534;50.762;7.000;2023-02-23T08:24:59;88201.41;;;-143.16;85.00
14885;BME280;7534;50.762;7.000;2023-02-23T08:27:27;88223.59;;;-143.16;84.89
14885;BME280;7534;50.762;7.000;2023-02-23T08:29:56;88241.78;;;-143.16;85.05
14885;BME280;7534;50.762;7.000;2023-02-23T08:32:21;88152.94;;;-143.16;84.81
14885;BME280;7534;50.762;7.000;2023-02-23T08:34:47;88187.25;;;-143.16;84.63
14885;BME280;7534;50.762;7.000;2023-02-23T08:37:13;88136.78;;;-143.16;84.71
14885;BME280;7534;50.762;7.000;2023-02-23T08:39:39;88191.31;;;-143.16;84.36
14885;BME280;7534;50.762;7.000;2023-02-23T08:42:05;88205.44;;;-143.16;84.07
14885;BME280;7534;50.762;7.000;2023-02-23T08:44:31;88183.22;;;-143.16;83.79
14885;BME280;7534;50.762;7.000;2023-02-23T08:46:57;88181.22;;;-143.16;84.08
14885;BME280;7534;50.762;7.000;2023-02-23T08:49:25;87902.66;;;-143.16;83.94
14885;BME280;7534;50.762;7.000;2023-02-23T08:51:51;88146.88;;;-143.16;83.78
14885;BME280;7534;50.762;7.000;2023-02-23T08:54:20;88157.00;;;-143.16;83.01
14885;BME280;7534;50.762;7.000;2023-02-23T08:56:46;88108.53;;;-143.16;83.02
14885;BME280;7534;50.762;7.000;2023-02-23T08:59:14;88157.00;;;-143.16;81.70
14885;BME280;7534;50.762;7.000;2023-02-23T09:01:41;88130.75;;;-143.16;81.44
14885;BME280;7534;50.762;7.000;2023-02-23T09:04:07;88052.00;;;-143.16;79.46
14885;BME280;7534;50.762;7.000;2023-02-23T09:06:33;88173.13;;;-143.16;79.27
14885;BME280;7534;50.762;7.000;2023-02-23T09:09:00;88171.13;;;-143.16;78.20
14885;BME280;7534;50.762;7.000;2023-02-23T09:11:26;88165.06;;;-143.16;78.03
14885;BME280;7534;50.762;7.000;2023-02-23T09:13:52;88140.84;;;-143.16;78.16
14885;BME280;7534;50.762;7.000;2023-02-23T09:16:18;88136.78;;;-143.16;78.70
14885;BME280;7534;50.762;7.000;2023-02-23T09:18:44;88076.25;;;-143.16;78.56
14885;BME280;7534;50.762;7.000;2023-02-23T09:21:18;88187.25;;;-143.16;78.67
14885;BME280;7534;50.762;7.000;2023-02-23T09:23:47;88197.34;;;-143.16;78.68
14885;BME280;7534;50.762;7.000;2023-02-23T09:26:14;88245.81;;;-143.16;78.20
14885;BME280;7534;50.762;7.000;2023-02-23T09:28:42;88001.56;;;-143.16;78.39
14885;BME280;7534;50.762;7.000;2023-02-23T09:31:12;88124.69;;;-143.16;78.35
14885;BME280;7534;50.762;7.000;2023-02-23T09:33:38;88447.69;;;-143.16;77.90
14885;BME280;7534;50.762;7.000;2023-02-23T09:36:13;88201.41;;;-143.16;78.03
14885;BME280;7534;50.762;7.000;2023-02-23T09:38:47;88379.03;;;-143.16;77.71
14885;BME280;7534;50.762;7.000;2023-02-23T09:43:59;88110.56;;;-143.16;77.41
14885;BME280;7534;50.762;7.000;2023-02-23T09:46:41;88142.84;;;-143.16;76.49
14885;BME280;7534;50.762;7.000;2023-02-23T09:49:15;88191.31;;;-143.16;75.62
14885;BME280;7534;50.762;7.000;2023-02-23T09:51:49;87965.22;;;-143.16;74.62
14885;BME280;7534;50.762;7.000;2023-02-23T09:54:22;88007.59;;;-143.16;74.65
14885;BME280;7534;50.762;7.000;2023-02-23T09:56:49;88086.34;;;-143.16;74.47
14885;BME280;7534;50.762;7.000;2023-02-23T09:59:20;88080.28;;;-143.16;73.21
14885;BME280;7534;50.762;7.000;2023-02-23T10:10:16;88163.03;;;-143.16;73.14
14885;BME280;7534;50.762;7.000;2023-02-23T10:15:43;88110.56;;;-143.16;73.60
14885;BME280;7534;50.762;7.000;2023-02-23T10:18:29;88154.97;;;-143.16;73.31
14885;BME280;7534;50.762;7.000;2023-02-23T10:21:30;88092.38;;;-143.16;73.54
14885;BME280;7534;50.762;7.000;2023-02-23T10:24:01;88124.69;;;-143.16;73.59
14885;BME280;7534;50.762;7.000;2023-02-23T10:26:40;88165.06;;;-143.16;73.62
14885;BME280;7534;50.762;7.000;2023-02-23T10:29:35;88106.53;;;-143.16;73.77
14885;BME280;7534;50.762;7.000;2023-02-23T10:32:24;88039.91;;;-143.16;72.83
14885;BME280;7534;50.762;7.000;2023-02-23T10:34:54;88128.72;;;-143.16;72.47
14885;BME280;7534;50.762;7.000;2023-02-23T10:37:22;88060.09;;;-143.16;72.56
14885;BME280;7534;50.762;7.000;2023-02-23T10:39:50;88096.44;;;-143.16;72.00
14885;BME280;7534;50.762;7.000;2023-02-23T10:42:26;88041.94;;;-143.16;72.73
14885;BME280;7534;50.762;7.000;2023-02-23T10:44:57;88082.28;;;-143.16;72.87
14885;BME280;7534;50.762;7.000;2023-02-23T10:47:31;88124.69;;;-143.16;72.23
14885;BME280;7534;50.762;7.000;2023-02-23T10:50:00;88060.09;;;-143.16;72.64
14885;BME280;7534;50.762;7.000;2023-02-23T10:52:45;88110.56;;;-143.16;72.78
14885;BME280;7534;50.762;7.000;2023-02-23T10:55:30;88126.72;;;-143.16;73.65
14885;BME280;7534;50.762;7.000;2023-02-23T10:58:16;88047.97;;;-143.16;72.93
14885;BME280;7534;50.762;7.000;2023-02-23T11:00:58;88076.25;;;-143.16;72.02
14885;BME280;7534;50.762;7.000;2023-02-23T11:06:05;88052.00;;;-143.16;72.53
14885;BME280;7534;50.762;7.000;2023-02-23T11:08:34;88092.38;;;-143.16;72.37
14885;BME280;7534;50.762;7.000;2023-02-23T11:13:47;88072.19;;;-143.16;72.25
14885;BME280;7534;50.762;7.000;2023-02-23T11:16:37;88039.91;;;-143.16;71.14
14885;BME280;7534;50.762;7.000;2023-02-23T11:19:06;87918.78;;;-143.16;71.13
14885;BME280;7534;50.762;7.000;2023-02-23T11:21:50;88094.41;;;-143.16;71.13
14885;BME280;7534;50.762;7.000;2023-02-23T11:24:34;88130.75;;;-143.16;71.11
14885;BME280;7534;50.762;7.000;2023-02-23T11:27:19;88015.69;;;-143.16;70.46
14885;BME280;7534;50.762;7.000;2023-02-23T11:29:49;88005.59;;;-143.16;70.23
14885;BME280;7534;50.762;7.000;2023-02-23T11:32:22;87967.25;;;-143.16;69.99
14885;BME280;7534;50.762;7.000;2023-02-23T11:35:24;87930.91;;;-143.16;69.51
14885;BME280;7534;50.762;7.000;2023-02-23T11:37:52;88173.13;;;-143.16;69.31
14885;BME280;7534;50.762;7.000;2023-02-23T11:40:28;88318.47;;;-143.16;69.34
14885;BME280;7534;50.762;7.000;2023-02-23T11:43:12;88076.25;;;-143.16;67.84
14885;BME280;7534;50.762;7.000;2023-02-23T11:45:49;87971.28;;;-143.16;67.88
14885;BME280;7534;50.762;7.000;2023-02-23T11:48:24;88070.19;;;-143.16;67.84
14885;BME280;7534;50.762;7.000;2023-02-23T11:50:53;88021.75;;;-143.16;67.21
14885;BME280;7534;50.762;7.000;2023-02-23T11:53:38;88132.75;;;-143.16;66.20
14885;BME280;7534;50.762;7.000;2023-02-23T11:56:06;87953.09;;;-143.16;66.59
14885;BME280;7534;50.762;7.000;2023-02-23T11:58:53;87930.91;;;-143.16;65.92
14885;BME280;7534;50.762;7.000;2023-02-23T12:01:34;87967.25;;;-143.16;64.52
14885;BME280;7534;50.762;7.000;2023-02-23T12:04:02;87971.28;;;-143.16;65.35
14885;BME280;7534;50.762;7.000;2023-02-23T12:06:37;87971.28;;;-143.16;64.89
14885;BME280;7534;50.762;7.000;2023-02-23T12:09:19;87955.13;;;-143.16;65.54
14885;BME280;7534;50.762;7.000;2023-02-23T12:12:14;87955.13;;;-143.16;63.76
14885;BME280;7534;50.762;7.000;2023-02-23T12:14:54;87999.53;;;-143.16;63.93
14885;BME280;7534;50.762;7.000;2023-02-23T12:17:28;88050.00;;;-143.16;65.40
14885;BME280;7534;50.762;7.000;2023-02-23T12:20:09;88009.63;;;-143.16;65.61
14885;BME280;7534;50.762;7.000;2023-02-23T12:23:08;88033.84;;;-143.16;65.72
14885;BME280;7534;50.762;7.000;2023-02-23T12:26:09;88066.16;;;-143.16;66.11
14885;BME280;7534;50.762;7.000;2023-02-23T12:28:46;88112.56;;;-143.16;66.27
14885;BME280;7534;50.762;7.000;2023-02-23T12:34:20;88052.00;;;-143.16;67.46
14885;BME280;7534;50.762;7.000;2023-02-23T12:39:57;88126.72;;;-143.16;67.56
14885;BME280;7534;50.762;7.000;2023-02-23T12:43:04;88173.13;;;-143.16;67.35
14885;BME280;7534;50.762;7.000;2023-02-23T12:45:51;88015.69;;;-143.16;67.99
14885;BME280;7534;50.762;7.000;2023-02-23T12:48:45;88169.09;;;-143.16;68.14
14885;BME280;7534;50.762;7.000;2023-02-23T12:51:26;88007.59;;;-143.16;67.37
14885;BME280;7534;50.762;7.000;2023-02-23T12:53:54;87999.53;;;-143.16;66.62
14885;BME280;7534;50.762;7.000;2023-02-23T12:56:33;88064.13;;;-143.16;66.65
14885;BME280;7534;50.762;7.000;2023-02-23T13:02:22;88078.25;;;-143.16;65.42
14885;BME280;7534;50.762;7.000;2023-02-23T13:16:57;88205.44;;;-143.16;68.70
14885;BME280;7534;50.762;7.000;2023-02-23T13:19:38;88169.09;;;-143.16;69.34
14885;BME280;7534;50.762;7.000;2023-02-23T13:22:44;88268.00;;;-143.16;70.09
14885;BME280;7534;50.762;7.000;2023-02-23T13:28:17;88231.69;;;-143.16;72.41
14885;BME280;7534;50.762;7.000;2023-02-23T13:30:45;88546.59;;;-143.16;73.50
14885;BME280;7534;50.762;7.000;2023-02-23T13:33:27;88187.25;;;-143.16;74.98
14885;BME280;7534;50.762;7.000;2023-02-23T13:35:57;88140.84;;;-143.16;76.08
14885;BME280;7534;50.762;7.000;2023-02-23T13:38:41;88405.28;;;-143.16;77.48
14885;BME280;7534;50.762;7.000;2023-02-23T13:41:23;88381.06;;;-143.16;78.46
14885;BME280;7534;50.762;7.000;2023-02-23T13:44:22;88318.47;;;-143.16;78.67
14885;BME280;7534;50.762;7.000;2023-02-23T13:47:20;88364.91;;;-143.16;79.23
14885;BME280;7534;50.762;7.000;2023-02-23T13:50:22;88465.84;;;-143.16;79.67
14885;BME280;7534;50.762;7.000;2023-02-23T13:52:54;88366.94;;;-143.16;79.94
14885;BME280;7534;50.762;7.000;2023-02-23T13:58:45;88399.22;;;-143.16;79.60
14885;BME280;7534;50.762;7.000;2023-02-23T14:01:04;88263.97;;;-143.16;78.71
14885;BME280;7534;50.762;7.000;2023-02-23T14:03:39;88229.66;;;-143.16;78.73
14885;BME280;7534;50.762;7.000;2023-02-23T14:06:06;88296.28;;;-143.16;78.57
14885;BME280;7534;50.762;7.000;2023-02-23T14:08:37;88245.81;;;-143.16;78.09
14885;BME280;7534;50.762;7.000;2023-02-23T14:11:04;88290.22;;;-143.16;77.33
14885;BME280;7534;50.762;7.000;2023-02-23T14:13:40;88261.97;;;-143.16;76.88
14885;BME280;7534;50.762;7.000;2023-02-23T14:16:19;88239.75;;;-143.16;76.51
14885;BME280;7534;50.762;7.000;2023-02-23T14:19:10;88263.97;;;-143.16;75.59
14885;BME280;7534;50.762;7.000;2023-02-23T14:21:49;88245.81;;;-143.16;74.19
14885;BME280;7534;50.762;7.000;2023-02-23T14:24:25;88280.13;;;-143.16;73.66
14885;BME280;7534;50.762;7.000;2023-02-23T14:29:40;88302.34;;;-143.16;73.63
14885;BME280;7534;50.762;7.000;2023-02-23T14:34:56;88373.00;;;-143.16;74.37
14885;BME280;7534;50.762;7.000;2023-02-23T14:37:35;88292.22;;;-143.16;74.06
14885;BME280;7534;50.762;7.000;2023-02-23T14:40:12;88263.97;;;-143.16;73.50
14885;BME280;7534;50.762;7.000;2023-02-23T14:42:40;88308.38;;;-143.16;73.53
14885;BME280;7534;50.762;7.000;2023-02-23T14:45:18;88383.09;;;-143.16;73.00